< Cyclone 200711 2007 Season Cyclone 200713 >
Cyclone 200712 (JACOB)
General InformationDetailed Track InformationTrack Information on Google MapsList of All Images || ResourceGoogle EarthGE AnimationAtom FeedGeoJSON
Detalied Best Track Wind (Time Zone = UTC)
Year Month Day Hour Lat. Long. Wind (kt) Gust (kt) Direc. of Major Storm Axis Radius of Major Storm Axis (nm) Radius of Minor Storm Axis (nm) Direc. of Major Gale Axis Radius of Major Gale Axis (nm) Radius of Minor Gale Axis (nm) Image
2007 3 2 18 -13.7 118.9 20 -1 symmetric - - symmetric - - Image
2007 3 3 00 -13.7 118.1 25 -1 symmetric - - symmetric - - Image
2007 3 3 06 -13.7 117.7 25 -1 symmetric - - symmetric - - Image
2007 3 3 12 -13.7 117.3 25 -1 symmetric - - symmetric - - Image
2007 3 3 18 -14.0 116.7 25 -1 symmetric - - symmetric - - Image
2007 3 4 00 -14.4 116.3 25 -1 symmetric - - symmetric - - Image
2007 3 4 06 -14.3 116.1 25 -1 symmetric - - symmetric - - Image
2007 3 4 12 -14.5 116.1 25 -1 symmetric - - symmetric - - Image
2007 3 4 18 -14.6 115.5 25 -1 symmetric - - symmetric - - Image
2007 3 5 00 -14.5 114.8 25 -1 symmetric - - symmetric - - Image
2007 3 5 06 -14.4 114.2 25 -1 symmetric - - symmetric - - Image
2007 3 5 12 -14.2 113.4 30 -1 symmetric - - symmetric - - Image
2007 3 5 18 -14.1 112.3 30 -1 symmetric - - symmetric - - Image
2007 3 6 00 -14.1 111.0 30 -1 symmetric - - symmetric - - Image
2007 3 6 06 -13.5 110.1 30 -1 symmetric - - symmetric - - Image
2007 3 6 12 -13.3 109.8 30 -1 symmetric - - symmetric - - Image
2007 3 6 18 -13.0 108.9 35 -1 symmetric - - symmetric - - Image
2007 3 7 00 -12.5 108.3 40 -1 symmetric - - symmetric - - Image
2007 3 7 06 -12.5 107.8 45 -1 symmetric - - symmetric - - Image
2007 3 7 12 -12.6 107.1 50 -1 symmetric - - symmetric - - Image
2007 3 7 18 -12.8 106.3 55 -1 symmetric - - symmetric - - Image
2007 3 8 00 -12.4 106.0 55 -1 symmetric - - symmetric - - Image
2007 3 8 06 -12.5 105.9 50 -1 symmetric - - symmetric - - Image
2007 3 8 12 -12.9 106.3 50 -1 symmetric - - symmetric - - Image
2007 3 8 18 -13.4 107.0 50 -1 symmetric - - symmetric - - Image
2007 3 9 00 -13.9 107.7 50 -1 symmetric - - symmetric - - Image
2007 3 9 06 -14.4 108.3 55 -1 symmetric - - symmetric - - Image
2007 3 9 12 -14.9 109.2 65 -1 symmetric - - symmetric - - Image
2007 3 9 18 -15.5 109.8 70 -1 symmetric - - symmetric - - Image
2007 3 10 00 -15.9 110.6 65 -1 symmetric - - symmetric - - Image
2007 3 10 06 -17.0 111.4 60 -1 symmetric - - symmetric - - Image
2007 3 10 12 -17.8 112.4 55 -1 symmetric - - symmetric - - Image
2007 3 10 18 -18.3 113.1 50 -1 symmetric - - symmetric - - Image
2007 3 11 00 -18.9 113.9 50 -1 symmetric - - symmetric - - Image
2007 3 11 06 -19.2 114.5 40 -1 symmetric - - symmetric - - Image
2007 3 11 12 -19.4 115.6 35 -1 symmetric - - symmetric - - Image
2007 3 11 18 -19.6 117.0 35 -1 symmetric - - symmetric - - Image
2007 3 12 00 -19.9 118.3 35 -1 symmetric - - symmetric - - Image
2007 3 12 03 -20.0 118.9 30 -1 symmetric - - symmetric - - Image
2007 3 12 06 -20.3 119.7 25 -1 symmetric - - symmetric - - Image
< Cyclone 200711 2007 Season Cyclone 200713 >

Help